createdAt,value
2018-01-14T10:45:55.284Z,3.20
2018-01-14T10:48:23.509Z,3.50
2018-01-14T10:50:52.061Z,3.70
2018-01-14T10:53:20.412Z,3.90
2018-01-14T10:55:48.422Z,4.10
2018-01-14T10:58:16.781Z,4.20
2018-01-14T11:00:50.045Z,4.30
2018-01-14T11:03:17.602Z,4.40
2018-01-14T11:05:45.138Z,4.40
2018-01-14T11:08:12.656Z,4.40
2018-01-14T11:10:40.183Z,4.40
2018-01-14T11:13:07.784Z,4.40
2018-01-14T11:15:35.356Z,4.50
2018-01-14T11:18:03.604Z,4.50
2018-01-14T11:20:31.144Z,4.60
2018-01-14T11:22:58.637Z,4.60
2018-01-14T11:25:26.921Z,4.70
2018-01-14T11:27:55.179Z,4.70
2018-01-14T11:30:22.677Z,4.60
2018-01-14T11:32:50.204Z,4.60
2018-01-14T11:35:18.454Z,4.60
2018-01-14T11:37:45.948Z,4.60
2018-01-14T11:40:13.437Z,4.80
2018-01-14T11:42:40.917Z,4.80
2018-01-14T11:45:08.418Z,4.80
2018-01-14T11:47:36.837Z,4.80
2018-01-14T11:50:05.474Z,4.70
2018-01-14T11:52:33.769Z,4.70
2018-01-14T11:55:02.065Z,4.70
2018-01-14T11:57:29.556Z,4.90
2018-01-14T11:59:57.096Z,5.00
2018-01-14T12:02:24.587Z,4.90
2018-01-14T12:04:52.846Z,4.90
2018-01-14T12:07:20.724Z,4.90
2018-01-14T12:09:48.189Z,4.90
2018-01-14T12:12:16.408Z,4.80
2018-01-14T12:14:43.916Z,4.70
2018-01-14T12:17:11.395Z,4.80
2018-01-14T12:19:39.512Z,4.80
2018-01-14T12:22:07.835Z,4.90
2018-01-14T12:24:36.091Z,4.90
2018-01-14T12:27:03.614Z,4.80
2018-01-14T12:29:31.145Z,4.60
2018-01-14T12:31:58.638Z,4.70
2018-01-14T12:34:38.956Z,4.70
2018-01-14T12:37:06.583Z,4.70
2018-01-14T12:39:35.955Z,4.80
2018-01-14T12:42:03.715Z,4.80
2018-01-14T12:44:31.349Z,4.80
2018-01-14T12:46:59.690Z,4.70
2018-01-14T12:49:27.607Z,4.80
2018-01-14T12:51:55.348Z,4.80
2018-01-14T12:54:22.835Z,4.70
2018-01-14T12:56:50.324Z,4.70
2018-01-14T12:59:18.600Z,4.80
2018-01-14T13:01:46.109Z,4.80
2018-01-14T13:04:14.379Z,4.90
2018-01-14T13:06:41.923Z,4.90
2018-01-14T13:09:09.439Z,4.90
2018-01-14T13:11:37.020Z,6.90
2018-01-14T13:14:04.435Z,5.00
2018-01-14T13:16:31.886Z,5.20
2018-01-14T13:18:59.385Z,5.10
2018-01-14T13:21:26.815Z,5.10
2018-01-14T13:23:54.277Z,5.00
2018-01-14T13:26:21.773Z,5.10
2018-01-14T13:28:49.212Z,5.10
2018-01-14T13:31:17.469Z,5.10
2018-01-14T13:33:44.907Z,5.10
2018-01-14T13:36:12.474Z,5.10
2018-01-14T13:38:39.919Z,4.90
2018-01-14T13:41:07.376Z,5.00
2018-01-14T13:43:35.221Z,5.00
2018-01-14T13:46:03.105Z,4.80
2018-01-14T13:48:30.544Z,4.90
2018-01-14T13:50:58.441Z,4.90
2018-01-14T13:53:25.878Z,4.90
2018-01-14T13:55:53.326Z,4.90
2018-01-14T13:58:20.781Z,4.90
2018-01-14T14:00:49.007Z,4.80
2018-01-14T14:03:17.257Z,4.80
2018-01-14T14:05:44.721Z,4.80
2018-01-14T14:08:12.265Z,4.80
2018-01-14T14:10:40.469Z,4.60
2018-01-14T14:13:08.706Z,4.80
2018-01-14T14:15:36.148Z,4.80
2018-01-14T14:18:03.601Z,4.90
2018-01-14T14:20:31.047Z,4.90
2018-01-14T14:22:58.573Z,4.70
2018-01-14T14:25:25.980Z,4.70
2018-01-14T14:27:53.430Z,4.70
2018-01-14T14:30:20.873Z,4.70
2018-01-14T14:32:48.369Z,4.60
2018-01-14T14:35:15.807Z,4.60
2018-01-14T14:37:43.255Z,4.70
2018-01-14T14:40:10.708Z,4.80
2018-01-14T14:42:38.161Z,4.80
2018-01-14T14:45:05.614Z,4.70
2018-01-14T14:47:33.454Z,4.80
2018-01-14T14:50:01.686Z,4.80
2018-01-14T14:52:29.518Z,4.80
2018-01-14T14:54:56.985Z,4.80
2018-01-14T14:57:24.474Z,4.90
2018-01-14T14:59:51.920Z,4.90
2018-01-14T15:02:19.373Z,4.90
2018-01-14T15:04:46.882Z,4.90
2018-01-14T15:07:15.087Z,5.10
2018-01-14T15:09:42.593Z,5.00
2018-01-14T15:12:10.070Z,5.00
2018-01-14T15:14:38.267Z,5.10
2018-01-14T15:17:05.770Z,5.00
2018-01-14T15:19:33.253Z,5.10
2018-01-14T15:22:01.462Z,5.10
2018-01-14T15:24:28.919Z,5.00
2018-01-14T15:26:56.364Z,5.10
2018-01-14T15:29:23.851Z,5.00
2018-01-14T15:31:51.337Z,5.00
2018-01-14T15:34:18.791Z,5.00
2018-01-14T15:36:46.485Z,4.90
2018-01-14T15:39:14.759Z,4.90
2018-01-14T15:41:42.984Z,4.80
2018-01-14T15:44:10.474Z,4.60
2018-01-14T15:46:37.927Z,4.70
2018-01-14T15:49:05.818Z,4.80
2018-01-14T15:51:33.715Z,4.70
2018-01-14T15:54:01.159Z,5.00
2018-01-14T15:56:28.614Z,4.70
2018-01-14T15:58:56.305Z,4.70
2018-01-14T16:01:23.747Z,4.80
2018-01-14T16:03:51.196Z,4.70
2018-01-14T16:06:18.654Z,4.80
2018-01-14T16:08:46.109Z,4.80
2018-01-14T16:11:14.145Z,4.70
2018-01-14T16:13:42.389Z,4.70
2018-01-14T16:16:09.886Z,4.60
2018-01-14T16:18:38.125Z,4.70
2018-01-14T16:21:05.582Z,4.60
2018-01-14T16:23:33.040Z,4.70
2018-01-14T16:26:00.539Z,4.70
2018-01-14T16:28:28.775Z,4.60
2018-01-14T16:30:56.228Z,4.50
2018-01-14T16:33:23.676Z,4.60
2018-01-14T16:35:51.150Z,4.60
2018-01-14T16:38:18.570Z,4.50
2018-01-14T16:40:46.257Z,4.50
2018-01-14T16:43:13.712Z,4.50
2018-01-14T16:45:41.154Z,4.60
2018-01-14T16:48:08.650Z,4.60
2018-01-14T16:50:36.487Z,4.60
2018-01-14T16:53:04.192Z,3.40
2018-01-14T16:55:32.452Z,4.60
2018-01-14T16:58:00.076Z,4.50
2018-01-14T17:00:27.560Z,4.50
2018-01-14T17:02:55.237Z,4.40
2018-01-14T17:05:22.675Z,4.40
2018-01-14T17:07:50.902Z,4.30
2018-01-14T17:10:18.373Z,4.30
2018-01-14T17:12:46.598Z,4.30
2018-01-14T17:15:14.847Z,4.30
2018-01-14T17:17:42.256Z,4.30
2018-01-14T17:20:09.720Z,4.30
2018-01-14T17:22:37.195Z,4.20
2018-01-14T17:25:04.640Z,4.10
2018-01-14T17:27:32.132Z,4.10
2018-01-14T17:29:59.602Z,4.10
2018-01-14T17:32:27.272Z,4.20
2018-01-14T17:34:54.945Z,4.20
2018-01-14T17:37:22.420Z,4.20
2018-01-14T17:39:50.654Z,4.10
2018-01-14T17:42:18.330Z,4.00
2018-01-14T17:44:45.998Z,5.10
2018-01-14T17:47:13.477Z,4.10
2018-01-14T17:49:40.917Z,4.00
2018-01-14T17:52:09.136Z,4.00
2018-01-14T17:54:36.617Z,4.70
2018-01-14T17:57:04.111Z,4.10
2018-01-14T17:59:32.544Z,4.00
2018-01-14T18:01:59.984Z,3.90
2018-01-14T18:04:27.476Z,4.00
2018-01-14T18:06:54.965Z,3.90
2018-01-14T18:09:23.402Z,4.00
2018-01-14T18:11:50.878Z,4.00
2018-01-14T18:14:18.559Z,4.00
2018-01-14T18:17:07.727Z,4.00
2018-01-14T18:19:35.213Z,4.00
2018-01-14T18:22:02.664Z,4.00
2018-01-14T18:24:30.337Z,5.10
2018-01-14T18:26:58.017Z,3.90
2018-01-14T18:29:25.453Z,3.90
2018-01-14T18:31:52.952Z,3.90
2018-01-14T18:34:20.625Z,3.90
2018-01-14T18:36:48.882Z,4.00
2018-01-14T18:39:16.559Z,3.90
2018-01-14T18:41:44.229Z,3.90
2018-01-14T18:44:11.893Z,3.90
2018-01-14T18:46:40.160Z,3.90
2018-01-14T18:49:08.431Z,3.90
2018-01-14T18:51:35.868Z,3.90
2018-01-14T18:54:03.402Z,3.90
2018-01-14T18:56:30.825Z,3.80
2018-01-14T18:58:58.264Z,3.90
2018-01-14T19:01:26.641Z,3.90
2018-01-14T19:03:54.715Z,3.90
2018-01-14T19:06:22.231Z,3.90
2018-01-14T19:08:49.623Z,3.90
2018-01-14T19:11:17.883Z,3.90
2018-01-14T19:13:45.388Z,3.90
2018-01-14T19:16:12.819Z,3.90
2018-01-14T19:18:40.327Z,3.80
2018-01-14T19:21:07.806Z,3.90
2018-01-14T19:23:35.240Z,3.90
2018-01-14T19:26:02.747Z,3.90
2018-01-14T19:28:31.073Z,3.90
2018-01-14T19:30:58.553Z,3.80
2018-01-14T19:33:25.995Z,3.90
2018-01-14T19:35:53.480Z,3.90
2018-01-14T19:38:23.956Z,3.90
2018-01-14T19:40:51.437Z,4.00
2018-01-14T19:43:18.906Z,4.10
2018-01-14T19:45:46.384Z,4.00
2018-01-14T19:48:13.871Z,3.90
2018-01-14T19:50:41.357Z,3.90
2018-01-14T19:53:08.829Z,3.90
2018-01-14T19:55:36.324Z,4.00
2018-01-14T19:58:04.561Z,3.90
2018-01-14T20:00:32.041Z,4.00
2018-01-14T20:02:59.529Z,4.00
2018-01-14T20:05:27.821Z,3.90
2018-01-14T20:07:55.699Z,3.90
2018-01-14T20:10:23.179Z,3.90
2018-01-14T20:12:50.672Z,3.90
2018-01-14T20:15:18.926Z,4.00
2018-01-14T20:17:46.375Z,3.90
2018-01-14T20:20:13.875Z,3.90
2018-01-14T20:22:41.362Z,4.00
2018-01-14T20:25:08.848Z,4.00
2018-01-14T20:27:36.338Z,3.90
2018-01-14T20:30:04.606Z,3.80
2018-01-14T20:32:32.861Z,3.80
2018-01-14T20:35:00.306Z,3.70
2018-01-14T20:37:27.839Z,3.80
2018-01-14T20:39:55.335Z,3.80
2018-01-14T20:42:25.492Z,3.80
2018-01-14T20:44:54.762Z,3.70
2018-01-14T20:47:23.023Z,3.70
2018-01-14T20:49:50.515Z,3.60
2018-01-14T20:52:18.024Z,3.80
2018-01-14T20:54:45.511Z,3.80
2018-01-14T20:57:13.015Z,3.80
2018-01-14T20:59:40.486Z,3.80
2018-01-14T21:02:07.964Z,3.50
2018-01-14T21:04:35.442Z,4.00
2018-01-14T21:07:03.711Z,3.90
2018-01-14T21:09:31.204Z,3.80
2018-01-14T21:11:58.687Z,3.60
2018-01-14T21:14:26.130Z,3.80
2018-01-14T21:16:53.582Z,3.90
2018-01-14T21:19:21.095Z,3.80
2018-01-14T21:21:48.615Z,3.80
2018-01-14T21:24:16.076Z,3.70
2018-01-14T21:26:43.556Z,3.60
2018-01-14T21:29:11.038Z,3.50
2018-01-14T21:31:39.294Z,3.50
2018-01-14T21:34:06.788Z,3.40
2018-01-14T21:36:34.294Z,3.50
2018-01-14T21:39:01.806Z,3.50
2018-01-14T21:41:29.299Z,3.50
2018-01-14T21:43:56.779Z,3.50
2018-01-14T21:46:24.265Z,3.50
2018-01-14T21:48:52.512Z,3.40
2018-01-14T21:51:20.103Z,3.30
2018-01-14T21:53:47.616Z,3.40
2018-01-14T21:56:15.103Z,3.30
2018-01-14T21:58:42.540Z,4.10
2018-01-14T22:01:10.050Z,3.40
2018-01-14T22:03:37.536Z,3.60
2018-01-14T22:06:05.409Z,3.60
2018-01-14T22:08:33.884Z,3.70
2018-01-14T22:11:04.367Z,3.70
2018-01-14T22:13:33.342Z,3.80
2018-01-14T22:16:06.360Z,3.70
2018-01-14T22:28:01.888Z,3.60
2018-01-14T22:30:51.431Z,4.90
2018-01-14T22:33:20.061Z,3.60
2018-01-14T22:35:50.277Z,3.60
2018-01-14T22:38:21.209Z,3.70
2018-01-14T22:40:49.594Z,3.60
2018-01-14T22:43:18.007Z,3.60
2018-01-14T22:45:45.610Z,3.60
2018-01-14T22:48:14.917Z,3.60
2018-01-14T22:50:43.148Z,3.60
2018-01-14T22:53:13.713Z,3.60
2018-01-14T22:55:42.127Z,3.50
2018-01-14T22:58:11.767Z,3.70
2018-01-14T23:00:43.076Z,3.60
2018-01-14T23:03:23.338Z,3.60
2018-01-14T23:05:55.017Z,3.60
2018-01-14T23:08:24.591Z,3.70
2018-01-14T23:11:00.554Z,3.60
2018-01-14T23:13:31.378Z,3.50
2018-01-14T23:15:59.864Z,3.60
2018-01-14T23:18:27.750Z,3.70
2018-01-14T23:20:58.144Z,3.70
2018-01-14T23:23:32.062Z,3.70
2018-01-14T23:26:01.446Z,3.70
2018-01-14T23:28:31.109Z,3.70
2018-01-14T23:30:59.553Z,3.70
2018-01-14T23:33:29.010Z,3.70
2018-01-14T23:35:57.347Z,3.70
2018-01-14T23:38:25.862Z,3.70
2018-01-14T23:40:56.639Z,3.80
2018-01-14T23:43:25.238Z,3.70
2018-01-14T23:45:54.989Z,3.70
2018-01-14T23:48:24.619Z,3.70
2018-01-14T23:50:52.219Z,3.70
2018-01-14T23:53:21.688Z,3.60
2018-01-14T23:55:51.688Z,3.60
2018-01-14T23:58:19.431Z,3.70
